sensor_id;sensor_type;location;lat;lon;timestamp;P1;durP1;ratioP1;P2;durP2;ratioP2
80398;SDS011;69722;48.642;9.142;2023-06-04T00:01:31;4.78;;;2.80;;
80398;SDS011;69722;48.642;9.142;2023-06-04T00:03:56;5.00;;;2.90;;
80398;SDS011;69722;48.642;9.142;2023-06-04T00:06:21;4.17;;;2.70;;
80398;SDS011;69722;48.642;9.142;2023-06-04T00:08:47;4.27;;;2.87;;
80398;SDS011;69722;48.642;9.142;2023-06-04T00:11:12;4.37;;;2.97;;
80398;SDS011;69722;48.642;9.142;2023-06-04T00:13:37;3.67;;;2.97;;
80398;SDS011;69722;48.642;9.142;2023-06-04T00:16:03;4.07;;;3.10;;
80398;SDS011;69722;48.642;9.142;2023-06-04T00:18:28;4.40;;;3.08;;
80398;SDS011;69722;48.642;9.142;2023-06-04T00:20:53;4.20;;;2.57;;
80398;SDS011;69722;48.642;9.142;2023-06-04T00:23:19;4.87;;;3.07;;
80398;SDS011;69722;48.642;9.142;2023-06-04T00:25:44;4.72;;;3.35;;
80398;SDS011;69722;48.642;9.142;2023-06-04T00:28:10;4.38;;;3.08;;
80398;SDS011;69722;48.642;9.142;2023-06-04T00:30:35;5.63;;;3.13;;
80398;SDS011;69722;48.642;9.142;2023-06-04T00:33:00;4.47;;;3.13;;
80398;SDS011;69722;48.642;9.142;2023-06-04T00:35:26;4.57;;;2.97;;
80398;SDS011;69722;48.642;9.142;2023-06-04T00:37:51;4.33;;;2.77;;
80398;SDS011;69722;48.642;9.142;2023-06-04T00:40:16;3.20;;;2.50;;
80398;SDS011;69722;48.642;9.142;2023-06-04T00:42:42;4.37;;;2.53;;
80398;SDS011;69722;48.642;9.142;2023-06-04T00:45:07;3.93;;;2.70;;
80398;SDS011;69722;48.642;9.142;2023-06-04T00:47:34;3.95;;;2.78;;
80398;SDS011;69722;48.642;9.142;2023-06-04T00:50:00;2.85;;;2.40;;
80398;SDS011;69722;48.642;9.142;2023-06-04T00:52:25;5.63;;;2.70;;
80398;SDS011;69722;48.642;9.142;2023-06-04T00:54:51;3.90;;;2.97;;
80398;SDS011;69722;48.642;9.142;2023-06-04T00:57:17;4.45;;;3.35;;
80398;SDS011;69722;48.642;9.142;2023-06-04T00:59:42;4.68;;;2.75;;
80398;SDS011;69722;48.642;9.142;2023-06-04T01:02:12;4.63;;;2.80;;
80398;SDS011;69722;48.642;9.142;2023-06-04T01:07:14;4.10;;;2.63;;
80398;SDS011;69722;48.642;9.142;2023-06-04T01:09:40;4.68;;;2.80;;
80398;SDS011;69722;48.642;9.142;2023-06-04T01:12:06;4.07;;;2.87;;
80398;SDS011;69722;48.642;9.142;2023-06-04T01:14:32;4.07;;;2.72;;
80398;SDS011;69722;48.642;9.142;2023-06-04T01:17:08;4.15;;;2.92;;
80398;SDS011;69722;48.642;9.142;2023-06-04T01:22:39;4.40;;;2.85;;
80398;SDS011;69722;48.642;9.142;2023-06-04T01:25:32;3.65;;;2.72;;
80398;SDS011;69722;48.642;9.142;2023-06-04T01:27:58;3.95;;;2.90;;
80398;SDS011;69722;48.642;9.142;2023-06-04T01:30:26;4.20;;;2.83;;
80398;SDS011;69722;48.642;9.142;2023-06-04T01:32:54;3.90;;;2.90;;
80398;SDS011;69722;48.642;9.142;2023-06-04T01:35:20;3.67;;;2.63;;
80398;SDS011;69722;48.642;9.142;2023-06-04T01:37:46;4.65;;;2.80;;
80398;SDS011;69722;48.642;9.142;2023-06-04T01:40:12;4.53;;;2.63;;
80398;SDS011;69722;48.642;9.142;2023-06-04T01:42:38;4.15;;;2.88;;
80398;SDS011;69722;48.642;9.142;2023-06-04T01:45:03;4.03;;;2.67;;
80398;SDS011;69722;48.642;9.142;2023-06-04T01:47:29;5.15;;;2.95;;
80398;SDS011;69722;48.642;9.142;2023-06-04T01:49:55;3.92;;;2.78;;
80398;SDS011;69722;48.642;9.142;2023-06-04T01:52:20;3.95;;;2.83;;
80398;SDS011;69722;48.642;9.142;2023-06-04T01:54:46;5.60;;;3.15;;
80398;SDS011;69722;48.642;9.142;2023-06-04T01:57:13;4.18;;;2.85;;
80398;SDS011;69722;48.642;9.142;2023-06-04T01:59:39;4.25;;;3.30;;
80398;SDS011;69722;48.642;9.142;2023-06-04T02:02:06;4.40;;;2.95;;
80398;SDS011;69722;48.642;9.142;2023-06-04T02:04:31;5.43;;;3.13;;
80398;SDS011;69722;48.642;9.142;2023-06-04T02:06:57;3.78;;;2.83;;
80398;SDS011;69722;48.642;9.142;2023-06-04T02:09:24;5.60;;;3.20;;
80398;SDS011;69722;48.642;9.142;2023-06-04T02:11:50;4.53;;;3.05;;
80398;SDS011;69722;48.642;9.142;2023-06-04T02:14:16;5.37;;;3.83;;
80398;SDS011;69722;48.642;9.142;2023-06-04T02:16:41;4.70;;;3.27;;
80398;SDS011;69722;48.642;9.142;2023-06-04T02:19:06;4.70;;;3.30;;
80398;SDS011;69722;48.642;9.142;2023-06-04T02:21:32;5.07;;;3.20;;
80398;SDS011;69722;48.642;9.142;2023-06-04T02:23:57;4.50;;;3.00;;
80398;SDS011;69722;48.642;9.142;2023-06-04T02:26:22;4.67;;;3.40;;
80398;SDS011;69722;48.642;9.142;2023-06-04T02:28:48;3.75;;;2.63;;
80398;SDS011;69722;48.642;9.142;2023-06-04T02:31:13;4.17;;;3.00;;
80398;SDS011;69722;48.642;9.142;2023-06-04T02:33:39;5.35;;;3.17;;
80398;SDS011;69722;48.642;9.142;2023-06-04T02:36:05;4.13;;;2.97;;
80398;SDS011;69722;48.642;9.142;2023-06-04T02:38:30;4.15;;;2.80;;
80398;SDS011;69722;48.642;9.142;2023-06-04T02:40:56;4.00;;;2.83;;
80398;SDS011;69722;48.642;9.142;2023-06-04T02:43:21;4.50;;;2.80;;
80398;SDS011;69722;48.642;9.142;2023-06-04T02:45:46;3.30;;;2.60;;
80398;SDS011;69722;48.642;9.142;2023-06-04T02:48:11;4.07;;;2.83;;
80398;SDS011;69722;48.642;9.142;2023-06-04T02:50:37;3.80;;;2.93;;
80398;SDS011;69722;48.642;9.142;2023-06-04T02:53:02;3.70;;;2.83;;
80398;SDS011;69722;48.642;9.142;2023-06-04T02:55:28;5.13;;;3.42;;
80398;SDS011;69722;48.642;9.142;2023-06-04T02:57:53;5.67;;;2.90;;
80398;SDS011;69722;48.642;9.142;2023-06-04T03:00:18;4.80;;;3.27;;
80398;SDS011;69722;48.642;9.142;2023-06-04T03:02:44;4.87;;;3.17;;
80398;SDS011;69722;48.642;9.142;2023-06-04T03:05:11;4.65;;;3.10;;
80398;SDS011;69722;48.642;9.142;2023-06-04T03:07:38;4.50;;;3.22;;
80398;SDS011;69722;48.642;9.142;2023-06-04T03:10:04;4.22;;;3.10;;
80398;SDS011;69722;48.642;9.142;2023-06-04T03:12:30;4.90;;;3.08;;
80398;SDS011;69722;48.642;9.142;2023-06-04T03:14:55;4.67;;;3.27;;
80398;SDS011;69722;48.642;9.142;2023-06-04T03:17:21;3.78;;;2.88;;
80398;SDS011;69722;48.642;9.142;2023-06-04T03:19:46;4.55;;;2.85;;
80398;SDS011;69722;48.642;9.142;2023-06-04T03:22:13;5.00;;;3.38;;
80398;SDS011;69722;48.642;9.142;2023-06-04T03:24:39;4.60;;;3.20;;
80398;SDS011;69722;48.642;9.142;2023-06-04T03:27:05;5.03;;;3.25;;
80398;SDS011;69722;48.642;9.142;2023-06-04T03:29:32;6.20;;;3.10;;
80398;SDS011;69722;48.642;9.142;2023-06-04T03:31:58;4.05;;;3.00;;
80398;SDS011;69722;48.642;9.142;2023-06-04T03:34:24;5.50;;;2.88;;
80398;SDS011;69722;48.642;9.142;2023-06-04T03:36:50;4.55;;;3.15;;
80398;SDS011;69722;48.642;9.142;2023-06-04T03:39:19;4.07;;;2.95;;
80398;SDS011;69722;48.642;9.142;2023-06-04T03:41:44;7.35;;;3.28;;
80398;SDS011;69722;48.642;9.142;2023-06-04T03:44:12;3.63;;;2.63;;
80398;SDS011;69722;48.642;9.142;2023-06-04T03:46:37;4.72;;;2.60;;
80398;SDS011;69722;48.642;9.142;2023-06-04T03:49:03;4.13;;;2.87;;
80398;SDS011;69722;48.642;9.142;2023-06-04T03:51:28;3.60;;;2.70;;
80398;SDS011;69722;48.642;9.142;2023-06-04T03:53:53;4.57;;;3.30;;
80398;SDS011;69722;48.642;9.142;2023-06-04T03:56:20;5.13;;;3.00;;
80398;SDS011;69722;48.642;9.142;2023-06-04T03:58:46;4.55;;;3.15;;
80398;SDS011;69722;48.642;9.142;2023-06-04T04:01:11;4.15;;;2.90;;
80398;SDS011;69722;48.642;9.142;2023-06-04T04:03:37;3.40;;;2.40;;
80398;SDS011;69722;48.642;9.142;2023-06-04T04:06:02;4.07;;;2.93;;
80398;SDS011;69722;48.642;9.142;2023-06-04T04:08:27;4.30;;;2.70;;
80398;SDS011;69722;48.642;9.142;2023-06-04T04:10:56;3.83;;;2.60;;
80398;SDS011;69722;48.642;9.142;2023-06-04T04:13:24;4.18;;;2.88;;
80398;SDS011;69722;48.642;9.142;2023-06-04T04:15:49;3.80;;;2.90;;
80398;SDS011;69722;48.642;9.142;2023-06-04T04:18:17;5.55;;;2.92;;
80398;SDS011;69722;48.642;9.142;2023-06-04T04:20:46;3.95;;;2.88;;
80398;SDS011;69722;48.642;9.142;2023-06-04T04:23:12;3.90;;;2.50;;
80398;SDS011;69722;48.642;9.142;2023-06-04T04:25:38;4.10;;;3.22;;
80398;SDS011;69722;48.642;9.142;2023-06-04T04:28:03;4.60;;;3.47;;
80398;SDS011;69722;48.642;9.142;2023-06-04T04:30:31;4.65;;;3.00;;
80398;SDS011;69722;48.642;9.142;2023-06-04T04:32:59;5.32;;;3.13;;
80398;SDS011;69722;48.642;9.142;2023-06-04T04:35:25;3.63;;;2.77;;
80398;SDS011;69722;48.642;9.142;2023-06-04T04:37:50;3.88;;;3.00;;
80398;SDS011;69722;48.642;9.142;2023-06-04T04:40:16;5.00;;;3.10;;
80398;SDS011;69722;48.642;9.142;2023-06-04T04:42:41;4.37;;;3.40;;
80398;SDS011;69722;48.642;9.142;2023-06-04T04:45:06;3.33;;;2.63;;
80398;SDS011;69722;48.642;9.142;2023-06-04T04:47:32;4.90;;;3.10;;
80398;SDS011;69722;48.642;9.142;2023-06-04T04:49:58;4.60;;;3.30;;
80398;SDS011;69722;48.642;9.142;2023-06-04T04:52:23;3.95;;;2.80;;
80398;SDS011;69722;48.642;9.142;2023-06-04T04:54:48;3.97;;;2.70;;
80398;SDS011;69722;48.642;9.142;2023-06-04T04:57:14;3.87;;;2.80;;
80398;SDS011;69722;48.642;9.142;2023-06-04T04:59:39;4.30;;;3.33;;
80398;SDS011;69722;48.642;9.142;2023-06-04T05:02:05;5.03;;;3.17;;
80398;SDS011;69722;48.642;9.142;2023-06-04T05:04:30;4.87;;;3.33;;
80398;SDS011;69722;48.642;9.142;2023-06-04T05:06:55;3.93;;;2.87;;
80398;SDS011;69722;48.642;9.142;2023-06-04T05:09:20;5.13;;;3.00;;
80398;SDS011;69722;48.642;9.142;2023-06-04T05:11:46;5.23;;;3.33;;
80398;SDS011;69722;48.642;9.142;2023-06-04T05:14:11;4.27;;;2.70;;
80398;SDS011;69722;48.642;9.142;2023-06-04T05:16:37;4.32;;;3.47;;
80398;SDS011;69722;48.642;9.142;2023-06-04T05:19:03;4.65;;;3.40;;
80398;SDS011;69722;48.642;9.142;2023-06-04T05:21:28;4.93;;;2.97;;
80398;SDS011;69722;48.642;9.142;2023-06-04T05:23:54;4.47;;;2.93;;
80398;SDS011;69722;48.642;9.142;2023-06-04T05:26:20;4.68;;;3.05;;
80398;SDS011;69722;48.642;9.142;2023-06-04T05:28:53;5.35;;;2.78;;
80398;SDS011;69722;48.642;9.142;2023-06-04T05:31:18;4.13;;;2.77;;
80398;SDS011;69722;48.642;9.142;2023-06-04T05:33:43;4.83;;;2.93;;
80398;SDS011;69722;48.642;9.142;2023-06-04T05:36:09;4.10;;;3.00;;
80398;SDS011;69722;48.642;9.142;2023-06-04T05:38:34;4.15;;;3.13;;
80398;SDS011;69722;48.642;9.142;2023-06-04T05:41:00;3.97;;;2.80;;
80398;SDS011;69722;48.642;9.142;2023-06-04T05:43:26;3.80;;;2.67;;
80398;SDS011;69722;48.642;9.142;2023-06-04T05:45:51;4.50;;;3.03;;
80398;SDS011;69722;48.642;9.142;2023-06-04T05:48:17;4.60;;;3.37;;
80398;SDS011;69722;48.642;9.142;2023-06-04T05:50:42;4.03;;;3.08;;
80398;SDS011;69722;48.642;9.142;2023-06-04T05:53:07;4.10;;;2.92;;
80398;SDS011;69722;48.642;9.142;2023-06-04T05:55:33;3.80;;;2.73;;
80398;SDS011;69722;48.642;9.142;2023-06-04T05:57:58;4.00;;;2.70;;
80398;SDS011;69722;48.642;9.142;2023-06-04T06:00:23;4.03;;;2.83;;
80398;SDS011;69722;48.642;9.142;2023-06-04T06:02:49;4.47;;;2.95;;
80398;SDS011;69722;48.642;9.142;2023-06-04T06:05:15;4.22;;;2.85;;
80398;SDS011;69722;48.642;9.142;2023-06-04T06:07:41;5.10;;;3.00;;
80398;SDS011;69722;48.642;9.142;2023-06-04T06:10:06;4.72;;;2.97;;
80398;SDS011;69722;48.642;9.142;2023-06-04T06:12:32;4.82;;;3.30;;
80398;SDS011;69722;48.642;9.142;2023-06-04T06:14:57;5.13;;;3.22;;
80398;SDS011;69722;48.642;9.142;2023-06-04T06:17:22;4.93;;;3.10;;
80398;SDS011;69722;48.642;9.142;2023-06-04T06:19:48;4.05;;;3.00;;
80398;SDS011;69722;48.642;9.142;2023-06-04T06:22:14;4.07;;;3.15;;
80398;SDS011;69722;48.642;9.142;2023-06-04T06:24:40;3.63;;;2.63;;
80398;SDS011;69722;48.642;9.142;2023-06-04T06:27:05;4.30;;;2.85;;
80398;SDS011;69722;48.642;9.142;2023-06-04T06:29:32;4.97;;;3.20;;
80398;SDS011;69722;48.642;9.142;2023-06-04T06:31:58;4.22;;;2.90;;
80398;SDS011;69722;48.642;9.142;2023-06-04T06:34:24;4.40;;;2.85;;
80398;SDS011;69722;48.642;9.142;2023-06-04T06:36:49;3.75;;;2.80;;
80398;SDS011;69722;48.642;9.142;2023-06-04T06:39:15;4.17;;;2.50;;
80398;SDS011;69722;48.642;9.142;2023-06-04T06:41:40;3.45;;;2.65;;
80398;SDS011;69722;48.642;9.142;2023-06-04T06:44:06;4.30;;;2.78;;
80398;SDS011;69722;48.642;9.142;2023-06-04T06:46:31;4.80;;;2.92;;
80398;SDS011;69722;48.642;9.142;2023-06-04T06:48:57;4.20;;;2.90;;
80398;SDS011;69722;48.642;9.142;2023-06-04T06:51:22;4.73;;;2.70;;
80398;SDS011;69722;48.642;9.142;2023-06-04T06:53:49;3.67;;;2.60;;
80398;SDS011;69722;48.642;9.142;2023-06-04T06:56:16;5.05;;;3.22;;
80398;SDS011;69722;48.642;9.142;2023-06-04T06:58:43;4.72;;;2.75;;
80398;SDS011;69722;48.642;9.142;2023-06-04T07:01:08;4.47;;;2.83;;
80398;SDS011;69722;48.642;9.142;2023-06-04T07:03:34;4.50;;;2.80;;
80398;SDS011;69722;48.642;9.142;2023-06-04T07:06:00;4.43;;;3.00;;
80398;SDS011;69722;48.642;9.142;2023-06-04T07:08:25;4.80;;;2.97;;
80398;SDS011;69722;48.642;9.142;2023-06-04T07:10:50;3.97;;;2.60;;
80398;SDS011;69722;48.642;9.142;2023-06-04T07:13:16;3.90;;;2.63;;
80398;SDS011;69722;48.642;9.142;2023-06-04T07:15:41;4.03;;;2.80;;
80398;SDS011;69722;48.642;9.142;2023-06-04T07:18:07;3.37;;;2.50;;
80398;SDS011;69722;48.642;9.142;2023-06-04T07:20:32;4.13;;;2.50;;
80398;SDS011;69722;48.642;9.142;2023-06-04T07:22:57;4.50;;;3.03;;
80398;SDS011;69722;48.642;9.142;2023-06-04T07:25:22;3.83;;;2.40;;
80398;SDS011;69722;48.642;9.142;2023-06-04T07:27:48;4.03;;;2.72;;
80398;SDS011;69722;48.642;9.142;2023-06-04T07:30:15;3.75;;;2.47;;
80398;SDS011;69722;48.642;9.142;2023-06-04T07:32:41;4.85;;;2.78;;
80398;SDS011;69722;48.642;9.142;2023-06-04T07:35:06;3.77;;;2.50;;
80398;SDS011;69722;48.642;9.142;2023-06-04T07:37:32;3.55;;;2.70;;
80398;SDS011;69722;48.642;9.142;2023-06-04T07:39:57;3.93;;;2.40;;
80398;SDS011;69722;48.642;9.142;2023-06-04T07:42:23;3.80;;;2.50;;
80398;SDS011;69722;48.642;9.142;2023-06-04T07:44:48;4.17;;;2.60;;
80398;SDS011;69722;48.642;9.142;2023-06-04T07:47:13;4.53;;;2.80;;
80398;SDS011;69722;48.642;9.142;2023-06-04T07:49:39;4.23;;;2.80;;
80398;SDS011;69722;48.642;9.142;2023-06-04T07:52:04;4.03;;;2.60;;
80398;SDS011;69722;48.642;9.142;2023-06-04T07:54:29;3.85;;;2.80;;
80398;SDS011;69722;48.642;9.142;2023-06-04T07:56:56;3.45;;;2.25;;
80398;SDS011;69722;48.642;9.142;2023-06-04T07:59:22;3.83;;;2.60;;
80398;SDS011;69722;48.642;9.142;2023-06-04T08:01:49;3.97;;;2.65;;
80398;SDS011;69722;48.642;9.142;2023-06-04T08:04:15;4.47;;;2.45;;
80398;SDS011;69722;48.642;9.142;2023-06-04T08:06:40;3.42;;;2.35;;
80398;SDS011;69722;48.642;9.142;2023-06-04T08:09:07;4.45;;;2.67;;
80398;SDS011;69722;48.642;9.142;2023-06-04T08:11:35;4.53;;;2.88;;
80398;SDS011;69722;48.642;9.142;2023-06-04T08:14:00;4.07;;;2.40;;
80398;SDS011;69722;48.642;9.142;2023-06-04T08:16:25;3.97;;;2.80;;
80398;SDS011;69722;48.642;9.142;2023-06-04T08:18:51;4.38;;;2.92;;
80398;SDS011;69722;48.642;9.142;2023-06-04T08:21:24;3.70;;;2.47;;
80398;SDS011;69722;48.642;9.142;2023-06-04T08:23:50;3.40;;;2.42;;
80398;SDS011;69722;48.642;9.142;2023-06-04T08:26:15;5.17;;;2.80;;
80398;SDS011;69722;48.642;9.142;2023-06-04T08:28:41;3.50;;;2.43;;
80398;SDS011;69722;48.642;9.142;2023-06-04T08:31:06;3.37;;;2.33;;
80398;SDS011;69722;48.642;9.142;2023-06-04T08:33:31;4.00;;;2.50;;
80398;SDS011;69722;48.642;9.142;2023-06-04T08:35:57;3.53;;;2.20;;
80398;SDS011;69722;48.642;9.142;2023-06-04T08:38:22;3.40;;;2.40;;
80398;SDS011;69722;48.642;9.142;2023-06-04T08:40:48;3.75;;;2.75;;
80398;SDS011;69722;48.642;9.142;2023-06-04T08:43:17;5.95;;;2.67;;
80398;SDS011;69722;48.642;9.142;2023-06-04T08:45:43;4.30;;;2.50;;
80398;SDS011;69722;48.642;9.142;2023-06-04T08:48:14;3.28;;;2.30;;
80398;SDS011;69722;48.642;9.142;2023-06-04T08:50:40;4.82;;;2.70;;
80398;SDS011;69722;48.642;9.142;2023-06-04T08:53:08;3.40;;;2.47;;
80398;SDS011;69722;48.642;9.142;2023-06-04T08:55:33;3.97;;;2.20;;
80398;SDS011;69722;48.642;9.142;2023-06-04T08:58:00;4.18;;;2.55;;
80398;SDS011;69722;48.642;9.142;2023-06-04T09:02:52;3.80;;;2.37;;
80398;SDS011;69722;48.642;9.142;2023-06-04T09:05:21;3.40;;;2.50;;
80398;SDS011;69722;48.642;9.142;2023-06-04T09:07:47;4.35;;;2.53;;
80398;SDS011;69722;48.642;9.142;2023-06-04T09:10:15;4.35;;;2.65;;
80398;SDS011;69722;48.642;9.142;2023-06-04T09:12:43;3.83;;;2.60;;
80398;SDS011;69722;48.642;9.142;2023-06-04T09:15:12;4.30;;;2.55;;
80398;SDS011;69722;48.642;9.142;2023-06-04T09:17:37;3.30;;;2.47;;
80398;SDS011;69722;48.642;9.142;2023-06-04T09:20:02;3.27;;;2.30;;
80398;SDS011;69722;48.642;9.142;2023-06-04T09:22:31;4.45;;;2.28;;
80398;SDS011;69722;48.642;9.142;2023-06-04T09:24:58;3.13;;;2.33;;
80398;SDS011;69722;48.642;9.142;2023-06-04T09:27:23;3.50;;;2.50;;
80398;SDS011;69722;48.642;9.142;2023-06-04T09:29:54;3.13;;;2.38;;
80398;SDS011;69722;48.642;9.142;2023-06-04T09:32:21;4.07;;;2.60;;
80398;SDS011;69722;48.642;9.142;2023-06-04T09:34:51;3.42;;;2.38;;
80398;SDS011;69722;48.642;9.142;2023-06-04T09:37:17;4.15;;;2.63;;
80398;SDS011;69722;48.642;9.142;2023-06-04T09:39:44;3.15;;;2.30;;
80398;SDS011;69722;48.642;9.142;2023-06-04T09:42:17;3.55;;;2.28;;
80398;SDS011;69722;48.642;9.142;2023-06-04T09:44:43;3.43;;;2.57;;
80398;SDS011;69722;48.642;9.142;2023-06-04T09:47:10;3.95;;;2.35;;
80398;SDS011;69722;48.642;9.142;2023-06-04T09:49:44;4.27;;;2.40;;
80398;SDS011;69722;48.642;9.142;2023-06-04T09:52:11;3.83;;;2.40;;
80398;SDS011;69722;48.642;9.142;2023-06-04T09:54:38;3.38;;;2.03;;
80398;SDS011;69722;48.642;9.142;2023-06-04T09:57:04;3.58;;;2.50;;
80398;SDS011;69722;48.642;9.142;2023-06-04T09:59:32;3.72;;;2.42;;
80398;SDS011;69722;48.642;9.142;2023-06-04T10:02:02;3.60;;;2.40;;
80398;SDS011;69722;48.642;9.142;2023-06-04T10:04:28;3.55;;;2.55;;
80398;SDS011;69722;48.642;9.142;2023-06-04T10:06:54;5.32;;;2.40;;
80398;SDS011;69722;48.642;9.142;2023-06-04T10:09:20;2.78;;;2.10;;
80398;SDS011;69722;48.642;9.142;2023-06-04T10:11:50;4.13;;;2.75;;
80398;SDS011;69722;48.642;9.142;2023-06-04T10:14:21;3.47;;;2.42;;
80398;SDS011;69722;48.642;9.142;2023-06-04T10:16:49;4.15;;;2.47;;
80398;SDS011;69722;48.642;9.142;2023-06-04T10:19:15;3.90;;;2.50;;
80398;SDS011;69722;48.642;9.142;2023-06-04T10:21:42;2.70;;;2.20;;
80398;SDS011;69722;48.642;9.142;2023-06-04T10:24:07;3.50;;;2.50;;
80398;SDS011;69722;48.642;9.142;2023-06-04T10:26:33;3.00;;;2.47;;
80398;SDS011;69722;48.642;9.142;2023-06-04T10:29:00;3.15;;;2.05;;
80398;SDS011;69722;48.642;9.142;2023-06-04T10:31:25;4.10;;;2.38;;
80398;SDS011;69722;48.642;9.142;2023-06-04T10:33:54;3.65;;;2.30;;
80398;SDS011;69722;48.642;9.142;2023-06-04T10:36:21;3.03;;;2.08;;
80398;SDS011;69722;48.642;9.142;2023-06-04T10:38:47;3.00;;;2.10;;
80398;SDS011;69722;48.642;9.142;2023-06-04T10:41:14;4.00;;;2.67;;
80398;SDS011;69722;48.642;9.142;2023-06-04T10:43:43;3.22;;;2.45;;
80398;SDS011;69722;48.642;9.142;2023-06-04T10:48:52;4.03;;;2.65;;
80398;SDS011;69722;48.642;9.142;2023-06-04T10:51:30;3.30;;;2.25;;
80398;SDS011;69722;48.642;9.142;2023-06-04T10:53:56;3.90;;;2.30;;
80398;SDS011;69722;48.642;9.142;2023-06-04T10:56:29;3.08;;;2.28;;
80398;SDS011;69722;48.642;9.142;2023-06-04T10:58:57;4.20;;;2.78;;
80398;SDS011;69722;48.642;9.142;2023-06-04T11:01:26;3.85;;;2.75;;
80398;SDS011;69722;48.642;9.142;2023-06-04T11:03:52;4.57;;;2.53;;
80398;SDS011;69722;48.642;9.142;2023-06-04T11:06:17;2.97;;;2.00;;
80398;SDS011;69722;48.642;9.142;2023-06-04T11:08:43;4.90;;;2.80;;
80398;SDS011;69722;48.642;9.142;2023-06-04T11:11:12;3.47;;;2.40;;
80398;SDS011;69722;48.642;9.142;2023-06-04T11:13:41;3.28;;;2.15;;
80398;SDS011;69722;48.642;9.142;2023-06-04T11:16:18;4.32;;;2.60;;
80398;SDS011;69722;48.642;9.142;2023-06-04T11:18:54;3.33;;;2.40;;
80398;SDS011;69722;48.642;9.142;2023-06-04T11:21:20;3.47;;;2.30;;
80398;SDS011;69722;48.642;9.142;2023-06-04T11:23:46;3.65;;;2.60;;
80398;SDS011;69722;48.642;9.142;2023-06-04T11:26:11;3.50;;;2.50;;
80398;SDS011;69722;48.642;9.142;2023-06-04T11:28:36;3.03;;;2.20;;
80398;SDS011;69722;48.642;9.142;2023-06-04T11:31:02;3.70;;;2.30;;
80398;SDS011;69722;48.642;9.142;2023-06-04T11:33:28;4.43;;;2.35;;
80398;SDS011;69722;48.642;9.142;2023-06-04T11:35:54;3.42;;;2.30;;
80398;SDS011;69722;48.642;9.142;2023-06-04T11:38:19;3.37;;;2.37;;
80398;SDS011;69722;48.642;9.142;2023-06-04T11:40:54;4.38;;;2.40;;
80398;SDS011;69722;48.642;9.142;2023-06-04T11:43:21;3.15;;;2.22;;
80398;SDS011;69722;48.642;9.142;2023-06-04T11:45:46;3.55;;;2.47;;
80398;SDS011;69722;48.642;9.142;2023-06-04T11:48:11;3.83;;;2.47;;
80398;SDS011;69722;48.642;9.142;2023-06-04T11:50:37;3.15;;;2.33;;
80398;SDS011;69722;48.642;9.142;2023-06-04T11:53:02;3.83;;;2.33;;
80398;SDS011;69722;48.642;9.142;2023-06-04T11:55:28;3.38;;;2.33;;
80398;SDS011;69722;48.642;9.142;2023-06-04T11:57:53;3.58;;;2.30;;
80398;SDS011;69722;48.642;9.142;2023-06-04T12:00:19;2.88;;;2.10;;
80398;SDS011;69722;48.642;9.142;2023-06-04T12:02:55;3.30;;;2.22;;
80398;SDS011;69722;48.642;9.142;2023-06-04T12:05:28;2.95;;;2.22;;
80398;SDS011;69722;48.642;9.142;2023-06-04T12:08:03;3.08;;;2.25;;
80398;SDS011;69722;48.642;9.142;2023-06-04T12:10:30;3.90;;;2.38;;
80398;SDS011;69722;48.642;9.142;2023-06-04T12:13:01;3.80;;;2.58;;
80398;SDS011;69722;48.642;9.142;2023-06-04T12:15:27;3.43;;;2.43;;
80398;SDS011;69722;48.642;9.142;2023-06-04T12:17:52;3.13;;;2.20;;
80398;SDS011;69722;48.642;9.142;2023-06-04T12:20:30;4.63;;;2.50;;
80398;SDS011;69722;48.642;9.142;2023-06-04T12:22:57;3.25;;;2.17;;
80398;SDS011;69722;48.642;9.142;2023-06-04T12:25:26;3.57;;;2.30;;
80398;SDS011;69722;48.642;9.142;2023-06-04T12:27:53;3.42;;;2.20;;
80398;SDS011;69722;48.642;9.142;2023-06-04T12:30:18;3.80;;;2.33;;
80398;SDS011;69722;48.642;9.142;2023-06-04T12:32:43;2.87;;;2.17;;
80398;SDS011;69722;48.642;9.142;2023-06-04T12:35:10;3.58;;;2.20;;
80398;SDS011;69722;48.642;9.142;2023-06-04T12:37:36;3.72;;;2.60;;
80398;SDS011;69722;48.642;9.142;2023-06-04T12:40:01;3.57;;;2.23;;
80398;SDS011;69722;48.642;9.142;2023-06-04T12:42:26;3.20;;;2.22;;
80398;SDS011;69722;48.642;9.142;2023-06-04T12:44:53;3.50;;;2.45;;
80398;SDS011;69722;48.642;9.142;2023-06-04T12:47:19;2.90;;;2.17;;
80398;SDS011;69722;48.642;9.142;2023-06-04T12:49:46;3.50;;;2.38;;
80398;SDS011;69722;48.642;9.142;2023-06-04T12:52:11;4.07;;;2.23;;
80398;SDS011;69722;48.642;9.142;2023-06-04T12:54:38;3.30;;;2.40;;
80398;SDS011;69722;48.642;9.142;2023-06-04T12:57:04;3.47;;;2.60;;
80398;SDS011;69722;48.642;9.142;2023-06-04T12:59:29;4.00;;;2.20;;
80398;SDS011;69722;48.642;9.142;2023-06-04T13:01:54;3.63;;;2.40;;
80398;SDS011;69722;48.642;9.142;2023-06-04T13:04:20;4.57;;;2.38;;
80398;SDS011;69722;48.642;9.142;2023-06-04T13:06:46;3.67;;;2.67;;
80398;SDS011;69722;48.642;9.142;2023-06-04T13:09:11;3.17;;;2.17;;
80398;SDS011;69722;48.642;9.142;2023-06-04T13:11:41;3.55;;;2.22;;
80398;SDS011;69722;48.642;9.142;2023-06-04T13:14:07;3.83;;;2.30;;
80398;SDS011;69722;48.642;9.142;2023-06-04T13:16:34;3.83;;;2.25;;
80398;SDS011;69722;48.642;9.142;2023-06-04T13:18:59;3.20;;;2.10;;
80398;SDS011;69722;48.642;9.142;2023-06-04T13:21:25;3.25;;;2.47;;
80398;SDS011;69722;48.642;9.142;2023-06-04T13:23:50;4.30;;;2.50;;
80398;SDS011;69722;48.642;9.142;2023-06-04T13:26:16;4.28;;;2.38;;
80398;SDS011;69722;48.642;9.142;2023-06-04T13:28:41;4.00;;;2.60;;
80398;SDS011;69722;48.642;9.142;2023-06-04T13:31:07;3.03;;;2.20;;
80398;SDS011;69722;48.642;9.142;2023-06-04T13:33:32;3.23;;;2.40;;
80398;SDS011;69722;48.642;9.142;2023-06-04T13:35:59;4.35;;;2.53;;
80398;SDS011;69722;48.642;9.142;2023-06-04T13:38:25;3.38;;;2.15;;
80398;SDS011;69722;48.642;9.142;2023-06-04T13:40:50;3.57;;;2.57;;
80398;SDS011;69722;48.642;9.142;2023-06-04T13:43:15;3.67;;;2.60;;
80398;SDS011;69722;48.642;9.142;2023-06-04T13:45:41;3.50;;;2.30;;
80398;SDS011;69722;48.642;9.142;2023-06-04T13:48:09;3.45;;;2.30;;
80398;SDS011;69722;48.642;9.142;2023-06-04T13:50:34;3.50;;;2.38;;
80398;SDS011;69722;48.642;9.142;2023-06-04T13:53:00;3.40;;;2.50;;
80398;SDS011;69722;48.642;9.142;2023-06-04T13:55:26;3.55;;;2.25;;
80398;SDS011;69722;48.642;9.142;2023-06-04T13:57:51;4.60;;;2.40;;
80398;SDS011;69722;48.642;9.142;2023-06-04T14:00:16;3.63;;;2.20;;
80398;SDS011;69722;48.642;9.142;2023-06-04T14:02:42;3.30;;;2.37;;
80398;SDS011;69722;48.642;9.142;2023-06-04T14:05:07;3.50;;;2.47;;
80398;SDS011;69722;48.642;9.142;2023-06-04T14:07:33;4.57;;;2.55;;
80398;SDS011;69722;48.642;9.142;2023-06-04T14:09:58;3.28;;;2.15;;
80398;SDS011;69722;48.642;9.142;2023-06-04T14:12:23;3.78;;;2.40;;
80398;SDS011;69722;48.642;9.142;2023-06-04T14:14:49;3.10;;;2.28;;
80398;SDS011;69722;48.642;9.142;2023-06-04T14:17:15;3.65;;;2.45;;
80398;SDS011;69722;48.642;9.142;2023-06-04T14:19:40;3.10;;;2.10;;
80398;SDS011;69722;48.642;9.142;2023-06-04T14:22:06;3.60;;;2.40;;
80398;SDS011;69722;48.642;9.142;2023-06-04T14:24:31;4.07;;;2.53;;
80398;SDS011;69722;48.642;9.142;2023-06-04T14:26:56;3.40;;;2.13;;
80398;SDS011;69722;48.642;9.142;2023-06-04T14:29:22;3.20;;;2.20;;
80398;SDS011;69722;48.642;9.142;2023-06-04T14:31:47;4.17;;;2.60;;
80398;SDS011;69722;48.642;9.142;2023-06-04T14:34:12;3.97;;;2.22;;
80398;SDS011;69722;48.642;9.142;2023-06-04T14:36:38;3.90;;;2.40;;
80398;SDS011;69722;48.642;9.142;2023-06-04T14:39:03;3.80;;;2.70;;
80398;SDS011;69722;48.642;9.142;2023-06-04T14:41:29;4.32;;;2.20;;
80398;SDS011;69722;48.642;9.142;2023-06-04T14:43:55;3.28;;;2.30;;
80398;SDS011;69722;48.642;9.142;2023-06-04T14:46:20;3.28;;;2.20;;
80398;SDS011;69722;48.642;9.142;2023-06-04T14:48:46;3.10;;;2.03;;
80398;SDS011;69722;48.642;9.142;2023-06-04T14:51:11;3.40;;;2.23;;
80398;SDS011;69722;48.642;9.142;2023-06-04T14:53:37;2.80;;;2.08;;